EGXW - Wainfleet
Distance from station: E 5mi, 14km
Updated: 04/22/2018 6:50am
Mostly Cloudy
Mostly Cloudy
 Wind from W
Wind: W 13 mph , 20 km/h
Temperature: 63°F , 17°C
Dew Point: 48°F , 9°C
Humidity: 59%
Barometer: 29.74 inHg , 1007 hPa
Clouds: Mostly Cloudy
Visibility: 6 miles , 10 km
Cloud details: Few Clouds 2800 ft
Mostly Cloudy 8000 ft
2018/04/22 13:50 EGXW 221350Z 26011KT 9999 FEW028 BKN080 17/09 Q1007 BLU